Time;durP1;ratioP1;P1;durP2;ratioP2;P2;SDS_P1;SDS_P2;PMS_P1;PMS_P2;Temp;Humidity;BMP_temperature;BMP_pressure;BME280_temperature;BME280_humidity;BME280_pressure;Samples;Min_cycle;Max_cycle;Signal;HPM_P1;HPM_P2
2022/11/14 00:00:52;;;;;;;;;;;13.70;99.60;;;;;;5069765;28;19920;-75
2022/11/14 00:03:17;;;;;;;;;;;13.80;99.60;;;;;;5067638;28;19921;-75
2022/11/14 00:05:44;;;;;;;;;;;13.70;99.80;;;;;;5069238;28;19942;-76
2022/11/14 00:08:35;;;;;;;;;;;13.80;99.80;;;;;;5058425;28;20756;-75
2022/11/14 00:11:01;;;;;;;;;;;13.80;99.80;;;;;;5061949;28;19916;-75
2022/11/14 00:13:26;;;;;;;;;;;13.80;99.90;;;;;;5068970;28;20392;-76
2022/11/14 00:15:55;;;;;;;;;;;13.70;99.90;;;;;;5062041;28;20394;-76
2022/11/14 00:18:20;;;;;;;;;;;13.70;99.90;;;;;;5069831;28;19916;-76
2022/11/14 00:20:47;;;;;;;;;;;13.70;99.90;;;;;;5066328;28;19920;-75
2022/11/14 00:23:12;;;;;;;;;;;13.80;99.90;;;;;;5068438;28;19913;-75
2022/11/14 00:25:38;;;;;;;;;;;13.90;99.90;;;;;;5068553;28;20430;-76
2022/11/14 00:28:03;;;;;;;;;;;13.80;99.90;;;;;;5069150;28;19959;-75
2022/11/14 00:30:29;;;;;;;;;;;13.80;99.90;;;;;;5068465;28;19920;-76
2022/11/14 00:32:54;;;;;;;;;;;13.80;99.90;;;;;;5070322;28;19958;-74
2022/11/14 00:35:20;;;;;;;;;;;13.80;99.90;;;;;;5068020;28;19921;-75
2022/11/14 00:37:45;;;;;;;;;;;13.80;99.90;;;;;;5068336;28;19916;-76
2022/11/14 00:40:13;;;;;;;;;;;13.80;99.90;;;;;;5068346;28;20094;-75
2022/11/14 00:42:39;;;;;;;;;;;13.80;99.90;;;;;;5064501;28;19970;-75
2022/11/14 00:45:04;;;;;;;;;;;13.90;99.90;;;;;;5068153;28;19955;-75
2022/11/14 00:47:30;;;;;;;;;;;13.90;99.90;;;;;;5068183;28;19919;-75
2022/11/14 00:49:56;;;;;;;;;;;13.90;99.90;;;;;;5067110;28;19931;-74
2022/11/14 00:52:21;;;;;;;;;;;13.90;99.90;;;;;;5070021;28;19920;-74
2022/11/14 00:54:47;;;;;;;;;;;13.90;99.90;;;;;;5068492;28;20671;-74
2022/11/14 00:57:12;;;;;;;;;;;13.90;99.90;;;;;;5067787;28;19947;-74
2022/11/14 00:59:38;;;;;;;;;;;13.80;99.90;;;;;;5061216;28;19942;-74
2022/11/14 01:02:03;;;;;;;;;;;13.80;99.90;;;;;;5069171;28;19916;-75
2022/11/14 01:04:29;;;;;;;;;;;13.80;99.90;;;;;;5067847;28;20302;-75
2022/11/14 01:06:54;;;;;;;;;;;13.90;99.90;;;;;;5067816;28;19928;-75
2022/11/14 01:09:20;;;;;;;;;;;13.80;99.90;;;;;;5066947;28;20525;-74
2022/11/14 01:11:45;;;;;;;;;;;13.80;99.90;;;;;;5067020;28;19920;-74
2022/11/14 01:14:11;;;;;;;;;;;13.80;99.90;;;;;;5067060;28;19917;-75
2022/11/14 01:16:36;;;;;;;;;;;13.80;99.90;;;;;;5065660;28;19927;-75
2022/11/14 01:19:02;;;;;;;;;;;13.80;99.90;;;;;;5068482;28;19921;-74
2022/11/14 01:21:28;;;;;;;;;;;13.80;99.90;;;;;;5068186;28;19969;-75
2022/11/14 01:23:53;;;;;;;;;;;13.70;99.90;;;;;;5068194;28;20410;-75
2022/11/14 01:26:19;;;;;;;;;;;13.70;99.90;;;;;;5067841;28;19920;-75
2022/11/14 01:28:44;;;;;;;;;;;13.70;99.90;;;;;;5067859;28;19917;-74
2022/11/14 01:31:10;;;;;;;;;;;13.70;99.90;;;;;;5067168;28;19970;-75
2022/11/14 01:33:35;;;;;;;;;;;13.70;99.90;;;;;;5066359;28;19927;-74
2022/11/14 01:36:01;;;;;;;;;;;13.70;99.90;;;;;;5066702;28;19924;-74
2022/11/14 01:38:26;;;;;;;;;;;13.70;99.90;;;;;;5067504;28;20006;-74
2022/11/14 01:40:52;;;;;;;;;;;13.80;99.90;;;;;;5066564;28;19960;-75
2022/11/14 01:43:17;;;;;;;;;;;13.80;99.90;;;;;;5090588;28;19982;-75
2022/11/14 01:46:02;;;;;;;;;;;13.80;99.90;;;;;;5068248;28;19995;-75
2022/11/14 01:48:33;;;;;;;;;;;13.80;99.90;;;;;;5064716;28;19961;-74
2022/11/14 01:51:01;;;;;;;;;;;13.80;99.90;;;;;;5065897;28;19921;-74
2022/11/14 01:53:27;;;;;;;;;;;13.80;99.90;;;;;;5066339;28;19916;-74
2022/11/14 01:55:54;;;;;;;;;;;13.70;99.90;;;;;;5067564;28;19927;-75
2022/11/14 01:58:21;;;;;;;;;;;13.80;99.90;;;;;;5067046;28;19920;-75
2022/11/14 02:00:46;;;;;;;;;;;13.80;99.90;;;;;;5065628;28;19924;-75
2022/11/14 02:03:12;;;;;;;;;;;13.80;99.90;;;;;;5065942;28;19917;-75
2022/11/14 02:05:39;;;;;;;;;;;13.90;99.90;;;;;;5066435;28;19930;-75
2022/11/14 02:08:04;;;;;;;;;;;13.80;99.90;;;;;;5063075;28;20513;-75
2022/11/14 02:10:30;;;;;;;;;;;13.90;99.90;;;;;;5063960;28;19916;-74
2022/11/14 02:12:55;;;;;;;;;;;13.90;99.90;;;;;;5067425;28;19942;-74
2022/11/14 02:15:21;;;;;;;;;;;13.90;99.90;;;;;;5067199;28;19917;-75
2022/11/14 02:17:46;;;;;;;;;;;13.80;99.90;;;;;;5067797;28;20024;-75
2022/11/14 02:20:12;;;;;;;;;;;13.90;99.90;;;;;;5066931;28;19958;-75
2022/11/14 02:22:39;;;;;;;;;;;13.80;99.90;;;;;;5066059;28;19924;-75
2022/11/14 02:25:05;;;;;;;;;;;13.90;99.90;;;;;;5066290;28;19919;-75
2022/11/14 02:27:31;;;;;;;;;;;13.90;99.90;;;;;;5067303;28;19989;-75
2022/11/14 02:30:08;;;;;;;;;;;14.00;99.90;;;;;;5066902;28;19917;-74
2022/11/14 02:32:34;;;;;;;;;;;13.90;99.90;;;;;;5064461;28;19913;-74
2022/11/14 02:34:59;;;;;;;;;;;13.90;99.90;;;;;;5067412;28;20023;-75
2022/11/14 02:37:25;;;;;;;;;;;13.90;99.90;;;;;;5065112;28;19913;-75
2022/11/14 02:39:50;;;;;;;;;;;13.90;99.90;;;;;;5065805;28;19917;-75
2022/11/14 02:42:16;;;;;;;;;;;13.90;99.90;;;;;;5066589;28;19916;-75
2022/11/14 02:44:41;;;;;;;;;;;13.90;99.90;;;;;;5067774;28;19916;-75
2022/11/14 02:47:07;;;;;;;;;;;13.90;99.90;;;;;;5065774;28;19928;-76
2022/11/14 02:49:33;;;;;;;;;;;13.80;99.90;;;;;;5068169;28;20433;-75
2022/11/14 02:51:58;;;;;;;;;;;13.80;99.90;;;;;;5067313;28;20370;-75
2022/11/14 02:54:24;;;;;;;;;;;13.80;99.90;;;;;;5067082;28;20469;-75
2022/11/14 02:56:49;;;;;;;;;;;13.80;99.90;;;;;;5066849;28;20676;-76
2022/11/14 02:59:15;;;;;;;;;;;13.80;99.90;;;;;;5066787;28;19916;-76
2022/11/14 03:01:40;;;;;;;;;;;13.80;99.90;;;;;;5067102;28;20007;-75
2022/11/14 03:04:06;;;;;;;;;;;13.80;99.90;;;;;;5067696;28;19916;-76
2022/11/14 03:06:31;;;;;;;;;;;13.80;99.90;;;;;;5066896;28;20007;-75
2022/11/14 03:08:57;;;;;;;;;;;13.80;99.90;;;;;;5061062;28;19995;-75
2022/11/14 03:11:22;;;;;;;;;;;13.80;99.90;;;;;;5063401;28;19916;-76
2022/11/14 03:13:48;;;;;;;;;;;13.80;99.90;;;;;;5066021;28;19998;-75
2022/11/14 03:16:13;;;;;;;;;;;13.70;99.90;;;;;;5066519;28;19920;-75
2022/11/14 03:18:39;;;;;;;;;;;13.70;99.90;;;;;;5062121;28;19989;-74
2022/11/14 03:21:09;;;;;;;;;;;13.70;99.90;;;;;;5066414;28;19926;-74
2022/11/14 03:23:35;;;;;;;;;;;13.70;99.90;;;;;;5065571;28;19916;-74
2022/11/14 03:26:01;;;;;;;;;;;13.70;99.90;;;;;;5066657;28;20019;-76
2022/11/14 03:28:27;;;;;;;;;;;13.70;99.90;;;;;;5066442;28;19917;-74
2022/11/14 03:30:53;;;;;;;;;;;13.70;99.90;;;;;;5067127;28;19970;-74
2022/11/14 03:33:18;;;;;;;;;;;13.60;99.90;;;;;;5066839;28;19920;-74
2022/11/14 03:35:44;;;;;;;;;;;13.60;99.90;;;;;;5066028;28;19924;-74
2022/11/14 03:38:10;;;;;;;;;;;13.60;99.90;;;;;;5064342;28;19921;-74
2022/11/14 03:40:38;;;;;;;;;;;13.60;99.90;;;;;;5064154;28;20066;-74
2022/11/14 03:43:04;;;;;;;;;;;13.60;99.90;;;;;;5066249;28;19923;-74
2022/11/14 03:45:29;;;;;;;;;;;13.60;99.90;;;;;;5065824;28;19917;-75
2022/11/14 03:47:55;;;;;;;;;;;13.50;99.90;;;;;;5064717;28;19967;-76
2022/11/14 03:50:20;;;;;;;;;;;13.50;99.90;;;;;;5063409;28;20468;-76
2022/11/14 03:52:47;;;;;;;;;;;13.40;99.90;;;;;;5064282;28;20034;-75
2022/11/14 03:55:13;;;;;;;;;;;13.40;99.90;;;;;;5066034;28;19927;-74
2022/11/14 03:57:38;;;;;;;;;;;13.30;99.90;;;;;;5066166;28;19921;-74
2022/11/14 04:00:04;;;;;;;;;;;13.40;99.90;;;;;;5062106;28;19919;-75
2022/11/14 04:02:30;;;;;;;;;;;13.50;99.90;;;;;;5066008;28;19966;-74
2022/11/14 04:04:55;;;;;;;;;;;13.50;99.90;;;;;;5066416;28;20478;-74
2022/11/14 04:07:21;;;;;;;;;;;13.50;99.90;;;;;;5064072;28;20420;-75
2022/11/14 04:09:46;;;;;;;;;;;13.50;99.90;;;;;;5096830;28;19920;-75
2022/11/14 04:12:12;;;;;;;;;;;13.50;99.90;;;;;;5068160;28;19937;-75
2022/11/14 04:14:38;;;;;;;;;;;13.30;99.90;;;;;;5067773;28;19923;-74
2022/11/14 04:17:03;;;;;;;;;;;13.40;99.90;;;;;;5069816;28;20431;-74
2022/11/14 04:19:29;;;;;;;;;;;13.50;99.90;;;;;;5070612;28;19920;-75
2022/11/14 04:21:54;;;;;;;;;;;13.50;99.90;;;;;;5068884;28;20368;-74
2022/11/14 04:24:20;;;;;;;;;;;13.50;99.90;;;;;;5069897;28;20765;-75
2022/11/14 04:26:45;;;;;;;;;;;13.40;99.90;;;;;;5069502;28;20761;-75
2022/11/14 04:29:11;;;;;;;;;;;13.40;99.90;;;;;;5069511;28;19912;-75
2022/11/14 04:31:36;;;;;;;;;;;13.50;99.90;;;;;;5069822;28;19917;-75
2022/11/14 04:34:02;;;;;;;;;;;13.40;99.90;;;;;;5067984;28;19920;-74
2022/11/14 04:36:27;;;;;;;;;;;13.40;99.90;;;;;;5068828;28;19924;-75
2022/11/14 04:38:53;;;;;;;;;;;13.40;99.90;;;;;;5070141;28;19917;-75
2022/11/14 04:41:18;;;;;;;;;;;13.30;99.90;;;;;;5069302;28;20598;-74
2022/11/14 04:43:44;;;;;;;;;;;13.30;99.90;;;;;;5061399;28;20444;-74
2022/11/14 04:46:09;;;;;;;;;;;13.30;99.90;;;;;;5069019;28;20333;-74
2022/11/14 04:48:35;;;;;;;;;;;13.30;99.90;;;;;;5069369;28;19919;-74
2022/11/14 04:51:00;;;;;;;;;;;13.30;99.90;;;;;;5068098;28;19920;-74
2022/11/14 04:53:26;;;;;;;;;;;13.30;99.90;;;;;;5066456;28;19924;-74
2022/11/14 04:55:52;;;;;;;;;;;13.30;99.90;;;;;;5068442;28;20002;-74
2022/11/14 04:58:17;;;;;;;;;;;13.20;99.90;;;;;;5067015;28;19912;-74
2022/11/14 05:00:43;;;;;;;;;;;13.20;99.90;;;;;;5067905;28;19928;-74
2022/11/14 05:03:08;;;;;;;;;;;13.20;99.90;;;;;;5065424;28;19923;-74
2022/11/14 05:05:34;;;;;;;;;;;13.10;99.90;;;;;;5069593;28;20419;-74
2022/11/14 05:07:59;;;;;;;;;;;13.00;99.90;;;;;;5069494;28;19917;-75
2022/11/14 05:10:25;;;;;;;;;;;13.10;99.90;;;;;;5067741;28;19916;-74
2022/11/14 05:12:53;;;;;;;;;;;13.00;99.90;;;;;;5067657;28;19970;-75
2022/11/14 05:15:19;;;;;;;;;;;13.10;99.90;;;;;;5069186;28;20181;-75
2022/11/14 05:17:44;;;;;;;;;;;13.10;99.90;;;;;;5069611;28;19955;-76
2022/11/14 05:20:10;;;;;;;;;;;13.10;99.90;;;;;;5067792;28;19909;-75
2022/11/14 05:22:36;;;;;;;;;;;13.00;99.90;;;;;;5067104;28;19916;-76
2022/11/14 05:25:01;;;;;;;;;;;13.10;99.90;;;;;;5068836;28;20366;-75
2022/11/14 05:27:27;;;;;;;;;;;13.10;99.90;;;;;;5068749;28;19921;-76
2022/11/14 05:29:54;;;;;;;;;;;13.00;99.90;;;;;;5068780;28;19912;-76
2022/11/14 05:32:20;;;;;;;;;;;13.00;99.90;;;;;;5067747;28;19977;-75
2022/11/14 05:34:45;;;;;;;;;;;13.00;99.90;;;;;;5069320;28;19909;-76
2022/11/14 05:37:11;;;;;;;;;;;13.00;99.90;;;;;;5066981;28;19951;-78
2022/11/14 05:39:36;;;;;;;;;;;13.00;99.90;;;;;;5068703;28;19917;-76
2022/11/14 05:42:02;;;;;;;;;;;12.90;99.90;;;;;;5065087;28;19916;-80
2022/11/14 05:44:27;;;;;;;;;;;13.00;99.90;;;;;;5068152;28;19917;-77
2022/11/14 05:46:53;;;;;;;;;;;13.10;99.90;;;;;;5064345;28;20394;-77
2022/11/14 05:49:18;;;;;;;;;;;13.00;99.90;;;;;;5066637;28;20008;-79
2022/11/14 05:51:44;;;;;;;;;;;13.00;99.90;;;;;;5067772;28;20019;-78
2022/11/14 05:54:09;;;;;;;;;;;13.10;99.90;;;;;;5065313;28;19971;-79
2022/11/14 05:56:35;;;;;;;;;;;13.00;99.90;;;;;;5065456;28;19935;-77
2022/11/14 05:59:00;;;;;;;;;;;13.10;99.90;;;;;;5067884;28;19917;-78
2022/11/14 06:01:26;;;;;;;;;;;13.20;99.90;;;;;;5062891;28;19924;-77
2022/11/14 06:03:52;;;;;;;;;;;13.10;99.90;;;;;;5065218;28;19964;-78
2022/11/14 06:06:19;;;;;;;;;;;13.10;99.90;;;;;;5067611;28;19959;-79
2022/11/14 06:08:44;;;;;;;;;;;13.10;99.90;;;;;;5065243;28;20435;-78
2022/11/14 06:11:11;;;;;;;;;;;13.30;99.90;;;;;;5066968;28;20021;-76
2022/11/14 06:13:37;;;;;;;;;;;13.20;99.90;;;;;;5068419;28;19917;-76
2022/11/14 06:16:08;;;;;;;;;;;13.30;99.90;;;;;;5066699;28;19928;-79
2022/11/14 06:18:34;;;;;;;;;;;13.30;99.90;;;;;;5068935;28;19916;-77
2022/11/14 06:21:04;;;;;;;;;;;13.50;99.90;;;;;;5060611;28;19927;-75
2022/11/14 06:23:30;;;;;;;;;;;13.30;99.90;;;;;;5065971;28;20330;-76
2022/11/14 06:25:59;;;;;;;;;;;13.30;99.90;;;;;;5064550;28;19922;-76
2022/11/14 06:28:25;;;;;;;;;;;13.30;99.90;;;;;;5064112;28;19912;-76
2022/11/14 06:30:50;;;;;;;;;;;13.40;99.90;;;;;;5067333;28;19935;-75
2022/11/14 06:33:16;;;;;;;;;;;13.30;99.90;;;;;;5066313;28;19923;-75
2022/11/14 06:35:41;;;;;;;;;;;13.30;99.90;;;;;;5067713;28;20020;-76
2022/11/14 06:38:07;;;;;;;;;;;13.30;99.90;;;;;;5060325;28;19916;-76
2022/11/14 06:40:32;;;;;;;;;;;13.20;99.90;;;;;;5064968;28;20000;-77
2022/11/14 06:42:58;;;;;;;;;;;13.20;99.90;;;;;;5066244;28;20018;-77
2022/11/14 06:45:23;;;;;;;;;;;13.30;99.90;;;;;;5068627;28;19913;-77
2022/11/14 06:47:49;;;;;;;;;;;13.30;99.90;;;;;;5065320;28;19927;-77
2022/11/14 06:50:15;;;;;;;;;;;13.20;99.90;;;;;;5065185;28;20367;-77
2022/11/14 06:52:40;;;;;;;;;;;13.30;99.90;;;;;;5070557;28;19947;-76
2022/11/14 06:55:06;;;;;;;;;;;13.20;99.90;;;;;;5090920;28;20451;-76
2022/11/14 06:57:31;;;;;;;;;;;13.20;99.90;;;;;;5056515;28;20315;-77
2022/11/14 06:59:57;;;;;;;;;;;13.20;99.90;;;;;;5049240;28;19913;-77
2022/11/14 07:02:22;;;;;;;;;;;13.30;99.90;;;;;;5057664;28;19923;-77
2022/11/14 07:04:48;;;;;;;;;;;13.40;99.90;;;;;;5051959;28;19916;-76
2022/11/14 07:07:13;;;;;;;;;;;13.50;99.90;;;;;;5048286;28;19920;-76
2022/11/14 07:09:39;;;;;;;;;;;13.50;99.90;;;;;;5060331;28;19921;-76
2022/11/14 07:12:05;;;;;;;;;;;13.50;99.90;;;;;;5057480;28;19919;-76
2022/11/14 07:14:30;;;;;;;;;;;13.60;99.90;;;;;;5049919;28;19919;-76
2022/11/14 07:16:56;;;;;;;;;;;13.60;99.90;;;;;;5057802;28;20568;-77
2022/11/14 07:19:22;;;;;;;;;;;13.50;99.90;;;;;;5063107;28;19967;-77
2022/11/14 07:21:47;;;;;;;;;;;13.50;99.90;;;;;;5049045;28;19916;-81
2022/11/14 07:24:13;;;;;;;;;;;13.50;99.90;;;;;;5064260;28;19955;-84
2022/11/14 07:26:38;;;;;;;;;;;13.60;99.90;;;;;;5058196;28;19923;-84
2022/11/14 07:29:04;;;;;;;;;;;13.60;99.90;;;;;;5057975;28;19939;-83
2022/11/14 07:31:29;;;;;;;;;;;13.70;99.90;;;;;;5058612;28;19912;-83
2022/11/14 07:33:55;;;;;;;;;;;13.60;99.90;;;;;;5067280;28;20329;-83
2022/11/14 07:36:21;;;;;;;;;;;13.60;99.90;;;;;;5079891;28;19916;-84
2022/11/14 07:38:46;;;;;;;;;;;13.70;99.90;;;;;;5064891;28;19919;-83
2022/11/14 07:41:13;;;;;;;;;;;13.70;99.90;;;;;;5076096;28;20184;-83
2022/11/14 07:43:39;;;;;;;;;;;13.70;99.90;;;;;;5057801;28;20018;-84
2022/11/14 07:46:06;;;;;;;;;;;13.70;99.90;;;;;;5053164;28;19963;-78
2022/11/14 07:48:32;;;;;;;;;;;13.70;99.90;;;;;;5059860;28;19930;-77
2022/11/14 07:51:01;;;;;;;;;;;13.70;99.90;;;;;;5056572;28;20094;-77
2022/11/14 07:53:27;;;;;;;;;;;13.70;99.90;;;;;;5092758;28;19919;-77
2022/11/14 07:55:53;;;;;;;;;;;13.70;99.90;;;;;;5059134;28;19916;-77
2022/11/14 07:58:18;;;;;;;;;;;13.70;99.90;;;;;;5062414;28;20159;-78
2022/11/14 08:00:44;;;;;;;;;;;13.70;99.90;;;;;;5060422;28;19912;-77
2022/11/14 08:03:09;;;;;;;;;;;13.80;99.90;;;;;;5079555;28;19923;-77
2022/11/14 08:05:35;;;;;;;;;;;13.80;99.90;;;;;;5060699;28;19924;-77
2022/11/14 08:08:01;;;;;;;;;;;13.80;99.90;;;;;;5059544;28;19913;-77
2022/11/14 08:10:26;;;;;;;;;;;13.90;99.90;;;;;;5057520;28;20011;-77
2022/11/14 08:13:03;;;;;;;;;;;13.90;99.90;;;;;;5064005;28;20477;-77
2022/11/14 08:15:29;;;;;;;;;;;14.00;99.90;;;;;;5064087;28;19916;-77
2022/11/14 08:17:58;;;;;;;;;;;14.00;99.90;;;;;;5056798;28;20581;-77
2022/11/14 08:20:24;;;;;;;;;;;14.00;99.90;;;;;;5065075;28;19912;-77
2022/11/14 08:22:50;;;;;;;;;;;14.10;99.90;;;;;;5071140;28;19924;-78
2022/11/14 08:25:15;;;;;;;;;;;14.10;99.90;;;;;;5071093;28;20665;-77
2022/11/14 08:27:41;;;;;;;;;;;14.20;99.90;;;;;;5066489;28;19944;-77
2022/11/14 08:30:07;;;;;;;;;;;14.20;99.90;;;;;;5070673;28;19912;-77
2022/11/14 08:32:32;;;;;;;;;;;14.30;99.90;;;;;;5066218;28;19936;-77
2022/11/14 08:34:58;;;;;;;;;;;14.30;99.90;;;;;;5066898;28;19912;-77
2022/11/14 08:37:23;;;;;;;;;;;14.40;99.90;;;;;;5070678;28;19913;-77
2022/11/14 08:39:49;;;;;;;;;;;14.40;99.90;;;;;;5070773;28;19916;-77
2022/11/14 08:42:15;;;;;;;;;;;14.50;99.90;;;;;;5067440;28;19948;-77
2022/11/14 08:44:40;;;;;;;;;;;14.50;99.90;;;;;;5070556;28;19935;-77
2022/11/14 08:47:06;;;;;;;;;;;14.50;99.90;;;;;;5070425;28;19912;-77
2022/11/14 08:49:31;;;;;;;;;;;14.60;99.90;;;;;;5070065;28;20494;-77
2022/11/14 08:51:57;;;;;;;;;;;14.70;99.90;;;;;;5068727;28;19913;-77
2022/11/14 08:54:22;;;;;;;;;;;14.70;99.90;;;;;;5070158;28;19943;-77
2022/11/14 08:56:48;;;;;;;;;;;14.70;99.90;;;;;;5069701;28;20447;-77
2022/11/14 08:59:13;;;;;;;;;;;15.10;99.90;;;;;;5070163;28;19916;-78
2022/11/14 09:01:39;;;;;;;;;;;15.50;99.10;;;;;;5068991;28;19928;-76
2022/11/14 09:04:04;;;;;;;;;;;15.40;99.30;;;;;;5070048;28;19908;-77
2022/11/14 09:06:30;;;;;;;;;;;15.30;99.10;;;;;;5070228;28;19977;-77
2022/11/14 09:08:56;;;;;;;;;;;15.10;99.50;;;;;;5063532;28;19935;-77
2022/11/14 09:11:22;;;;;;;;;;;15.10;99.50;;;;;;5068875;28;20458;-77
2022/11/14 09:13:47;;;;;;;;;;;14.80;99.80;;;;;;5069956;28;19935;-77
2022/11/14 09:16:13;;;;;;;;;;;14.70;99.90;;;;;;5070528;28;20042;-77
2022/11/14 09:18:39;;;;;;;;;;;14.90;99.90;;;;;;5069989;28;19952;-77
2022/11/14 09:21:06;;;;;;;;;;;14.90;99.60;;;;;;5097028;28;19976;-77
2022/11/14 09:23:32;;;;;;;;;;;15.10;99.50;;;;;;5069370;28;20748;-77
2022/11/14 09:25:57;;;;;;;;;;;15.10;99.40;;;;;;5069381;28;20306;-77
2022/11/14 09:28:23;;;;;;;;;;;15.10;99.00;;;;;;5068898;28;19913;-77
2022/11/14 09:30:49;;;;;;;;;;;15.10;99.00;;;;;;5069297;28;19919;-77
2022/11/14 09:33:14;;;;;;;;;;;15.10;98.80;;;;;;5069114;28;19912;-77
2022/11/14 09:35:40;;;;;;;;;;;15.10;98.80;;;;;;5068803;28;19921;-78
2022/11/14 09:38:07;;;;;;;;;;;15.00;99.10;;;;;;5066882;28;19918;-77
2022/11/14 09:40:42;;;;;;;;;;;15.00;99.30;;;;;;5066859;28;20417;-77
2022/11/14 09:43:46;;;;;;;;;;;14.90;99.20;;;;;;5068314;28;19920;-77
2022/11/14 09:46:21;;;;;;;;;;;15.00;99.80;;;;;;5038315;28;20509;-77
2022/11/14 09:48:48;;;;;;;;;;;15.20;99.20;;;;;;5017239;28;19913;-77
2022/11/14 09:51:24;;;;;;;;;;;15.10;98.80;;;;;;5033378;28;19919;-77
2022/11/14 09:53:56;;;;;;;;;;;15.30;98.70;;;;;;5066149;28;19912;-77
2022/11/14 09:56:24;;;;;;;;;;;15.40;98.30;;;;;;5066910;28;19916;-78
2022/11/14 09:58:49;;;;;;;;;;;15.40;98.10;;;;;;5067298;28;19939;-77
2022/11/14 10:01:21;;;;;;;;;;;15.60;98.00;;;;;;5060296;28;19908;-77
2022/11/14 10:03:46;;;;;;;;;;;15.80;97.20;;;;;;5068512;28;19959;-78
2022/11/14 10:06:21;;;;;;;;;;;15.80;97.00;;;;;;5068711;28;20494;-77
2022/11/14 10:09:10;;;;;;;;;;;15.80;97.00;;;;;;5060826;28;20576;-78
2022/11/14 10:11:36;;;;;;;;;;;15.90;97.00;;;;;;5058207;28;19923;-77
2022/11/14 10:14:25;;;;;;;;;;;16.00;97.00;;;;;;5067982;28;20011;-77
2022/11/14 10:16:57;;;;;;;;;;;16.10;97.00;;;;;;5062285;28;19947;-78
2022/11/14 10:19:28;;;;;;;;;;;16.20;96.80;;;;;;5067777;28;20288;-77
2022/11/14 10:22:10;;;;;;;;;;;16.00;96.40;;;;;;5069092;28;20474;-77
2022/11/14 10:24:49;;;;;;;;;;;15.90;96.30;;;;;;5065061;28;19908;-77
2022/11/14 10:27:19;;;;;;;;;;;15.70;96.90;;;;;;5067280;28;19920;-77
2022/11/14 10:29:53;;;;;;;;;;;15.80;97.20;;;;;;5066455;28;20030;-78
2022/11/14 10:32:19;;;;;;;;;;;15.70;97.50;;;;;;5063800;28;19919;-77
2022/11/14 10:34:50;;;;;;;;;;;15.70;97.50;;;;;;5068296;28;20362;-78
2022/11/14 10:37:25;;;;;;;;;;;15.70;97.60;;;;;;5068152;28;19916;-77
2022/11/14 10:39:56;;;;;;;;;;;15.50;98.00;;;;;;5063577;28;20007;-77
2022/11/14 10:42:25;;;;;;;;;;;15.50;97.90;;;;;;5064863;28;19962;-78
2022/11/14 10:44:56;;;;;;;;;;;15.40;97.80;;;;;;5066968;28;19913;-77
2022/11/14 10:47:23;;;;;;;;;;;15.50;98.20;;;;;;5068015;28;19961;-78
2022/11/14 10:49:49;;;;;;;;;;;15.50;99.30;;;;;;5067117;28;19913;-78
2022/11/14 10:52:17;;;;;;;;;;;15.60;99.30;;;;;;5068394;28;19916;-78
2022/11/14 10:54:45;;;;;;;;;;;15.50;99.70;;;;;;5068503;28;20447;-78
2022/11/14 10:57:15;;;;;;;;;;;15.50;99.90;;;;;;5066346;28;19979;-77
2022/11/14 10:59:42;;;;;;;;;;;15.40;99.90;;;;;;5066725;28;19912;-77
2022/11/14 11:02:07;;;;;;;;;;;15.40;99.90;;;;;;5067408;28;19920;-77
2022/11/14 11:04:36;;;;;;;;;;;15.30;99.90;;;;;;5067880;28;19913;-77
2022/11/14 11:07:08;;;;;;;;;;;15.20;99.90;;;;;;5063392;28;19924;-77
2022/11/14 11:12:19;;;;;;;;;;;15.00;99.90;;;;;;5067650;28;19966;-78
2022/11/14 11:14:45;;;;;;;;;;;14.90;99.90;;;;;;5063361;28;19912;-78
2022/11/14 11:17:11;;;;;;;;;;;14.90;99.90;;;;;;5066689;28;20724;-77
2022/11/14 11:19:39;;;;;;;;;;;15.00;99.90;;;;;;5070064;28;19912;-78
2022/11/14 11:22:21;;;;;;;;;;;14.90;99.90;;;;;;5072850;28;19912;-78
2022/11/14 11:24:47;;;;;;;;;;;14.90;99.90;;;;;;5073918;28;19938;-78
2022/11/14 11:27:39;;;;;;;;;;;15.10;99.90;;;;;;5068619;28;20356;-77
2022/11/14 11:30:06;;;;;;;;;;;15.10;99.90;;;;;;5070300;28;19920;-77
2022/11/14 11:32:32;;;;;;;;;;;15.10;99.90;;;;;;5093356;28;20023;-78
2022/11/14 11:34:59;;;;;;;;;;;15.00;99.90;;;;;;5073671;28;20027;-77
2022/11/14 11:37:43;;;;;;;;;;;14.90;99.90;;;;;;5072094;28;19912;-78
2022/11/14 11:40:14;;;;;;;;;;;14.90;99.90;;;;;;5066915;28;19913;-78
2022/11/14 11:42:44;;;;;;;;;;;15.00;99.90;;;;;;5069337;28;19938;-78
2022/11/14 11:45:16;;;;;;;;;;;14.90;99.90;;;;;;5072442;28;20284;-78
2022/11/14 11:47:43;;;;;;;;;;;15.00;99.90;;;;;;5074248;28;20308;-78
2022/11/14 11:50:14;;;;;;;;;;;15.10;99.90;;;;;;5073861;28;19913;-78
2022/11/14 11:52:46;;;;;;;;;;;15.00;99.90;;;;;;5069485;28;19920;-78
2022/11/14 11:55:17;;;;;;;;;;;14.90;99.90;;;;;;5072558;28;20426;-78
2022/11/14 11:58:03;;;;;;;;;;;14.90;99.90;;;;;;5071328;28;19920;-77
2022/11/14 12:00:28;;;;;;;;;;;14.80;99.90;;;;;;5072978;28;19912;-77
2022/11/14 12:02:54;;;;;;;;;;;14.70;99.90;;;;;;5072489;28;19962;-78
2022/11/14 12:05:22;;;;;;;;;;;14.70;99.90;;;;;;5073926;28;19977;-78
2022/11/14 12:07:56;;;;;;;;;;;14.60;99.90;;;;;;5065517;28;19913;-78
2022/11/14 12:10:24;;;;;;;;;;;14.50;99.90;;;;;;5069661;28;19912;-78
2022/11/14 12:12:53;;;;;;;;;;;14.50;99.90;;;;;;5059435;28;19912;-77
2022/11/14 12:15:24;;;;;;;;;;;14.50;99.90;;;;;;5073621;28;20018;-78
2022/11/14 12:18:03;;;;;;;;;;;14.50;99.90;;;;;;5067496;28;19990;-77
2022/11/14 12:20:38;;;;;;;;;;;14.50;99.90;;;;;;5068538;28;19919;-77
2022/11/14 12:23:14;;;;;;;;;;;14.50;99.90;;;;;;5072533;28;19935;-78
2022/11/14 12:25:42;;;;;;;;;;;14.50;99.90;;;;;;5073053;28;19919;-78
2022/11/14 12:28:14;;;;;;;;;;;14.50;99.90;;;;;;5072232;28;19912;-78
2022/11/14 12:30:40;;;;;;;;;;;14.40;99.90;;;;;;5070738;28;19969;-77
2022/11/14 12:33:08;;;;;;;;;;;14.50;99.90;;;;;;5065585;28;19943;-77
2022/11/14 12:35:35;;;;;;;;;;;14.50;99.90;;;;;;5069983;28;19920;-77
2022/11/14 12:38:03;;;;;;;;;;;14.40;99.90;;;;;;5069551;28;19912;-77
2022/11/14 12:40:37;;;;;;;;;;;14.40;99.90;;;;;;5067978;28;19912;-78
2022/11/14 12:43:05;;;;;;;;;;;14.30;99.90;;;;;;5068448;28;19935;-78
2022/11/14 12:45:40;;;;;;;;;;;14.40;99.90;;;;;;5070180;28;20430;-78
2022/11/14 12:48:21;;;;;;;;;;;14.40;99.90;;;;;;5084416;28;19913;-77
2022/11/14 12:50:46;;;;;;;;;;;14.40;99.90;;;;;;5068548;28;19913;-77
2022/11/14 12:53:36;;;;;;;;;;;14.30;99.90;;;;;;5068543;28;19932;-77
2022/11/14 12:56:17;;;;;;;;;;;14.40;99.90;;;;;;5069593;28;20732;-78
2022/11/14 12:58:45;;;;;;;;;;;14.60;99.90;;;;;;5069625;28;19912;-78
2022/11/14 13:01:14;;;;;;;;;;;14.70;99.90;;;;;;5066790;28;20569;-77
2022/11/14 13:03:40;;;;;;;;;;;14.80;99.90;;;;;;5069924;28;19920;-77
2022/11/14 13:06:20;;;;;;;;;;;15.00;99.90;;;;;;5070115;28;20748;-77
2022/11/14 13:08:55;;;;;;;;;;;14.90;99.90;;;;;;5057106;28;19918;-77
2022/11/14 13:22:45;;;;;;;;;;;14.50;99.90;;;;;;5063487;28;19955;-77
2022/11/14 13:25:10;;;;;;;;;;;14.50;99.90;;;;;;5066998;28;19916;-77
2022/11/14 13:27:36;;;;;;;;;;;14.50;99.90;;;;;;5067456;28;19912;-78
2022/11/14 13:30:06;;;;;;;;;;;14.40;99.90;;;;;;5067508;28;19912;-78
2022/11/14 13:32:41;;;;;;;;;;;14.40;99.90;;;;;;5069145;28;19913;-78
2022/11/14 13:35:12;;;;;;;;;;;14.30;99.90;;;;;;5069488;28;19947;-77
2022/11/14 13:37:38;;;;;;;;;;;14.30;99.90;;;;;;5066516;28;19912;-78
2022/11/14 13:40:11;;;;;;;;;;;14.30;99.90;;;;;;5067667;28;19918;-78
2022/11/14 13:42:51;;;;;;;;;;;14.30;99.90;;;;;;5068265;28;19919;-78
2022/11/14 13:45:36;;;;;;;;;;;14.30;99.90;;;;;;5068893;28;19935;-78
2022/11/14 13:48:17;;;;;;;;;;;14.30;99.90;;;;;;5069005;28;20177;-78
2022/11/14 13:50:46;;;;;;;;;;;14.20;99.90;;;;;;5064010;28;19916;-78
2022/11/14 13:53:14;;;;;;;;;;;14.20;99.90;;;;;;5062155;28;19920;-78
2022/11/14 13:55:42;;;;;;;;;;;14.10;99.90;;;;;;5066529;28;19926;-78
2022/11/14 13:58:14;;;;;;;;;;;14.10;99.90;;;;;;5068845;28;19912;-78
2022/11/14 14:00:50;;;;;;;;;;;14.20;99.90;;;;;;5067312;28;19912;-78
2022/11/14 14:03:15;;;;;;;;;;;14.20;99.90;;;;;;5067168;28;19912;-78
2022/11/14 14:05:47;;;;;;;;;;;14.20;99.90;;;;;;5062218;28;20440;-78
2022/11/14 14:08:18;;;;;;;;;;;14.30;99.90;;;;;;5059852;28;19913;-78
2022/11/14 14:10:50;;;;;;;;;;;14.30;99.90;;;;;;5080343;28;19920;-78
2022/11/14 14:13:19;;;;;;;;;;;14.20;99.90;;;;;;5066815;28;19912;-78
2022/11/14 14:16:02;;;;;;;;;;;14.20;99.90;;;;;;5068546;28;19987;-78
2022/11/14 14:18:52;;;;;;;;;;;14.20;99.90;;;;;;5068328;28;20447;-78
2022/11/14 14:21:18;;;;;;;;;;;14.20;99.90;;;;;;5063016;28;19912;-78
2022/11/14 14:23:46;;;;;;;;;;;14.10;99.90;;;;;;5068327;28;19927;-77
2022/11/14 14:26:30;;;;;;;;;;;14.10;99.90;;;;;;5063114;28;19912;-78
2022/11/14 14:29:11;;;;;;;;;;;14.00;99.90;;;;;;5065105;28;19920;-78
2022/11/14 14:31:37;;;;;;;;;;;14.00;99.90;;;;;;5060673;28;19912;-78
2022/11/14 14:34:18;;;;;;;;;;;14.00;99.90;;;;;;5063866;28;19913;-78